Time;durP1;ratioP1;P1;durP2;ratioP2;P2;SDS_P1;SDS_P2;PMS_P1;PMS_P2;Temp;Humidity;BMP_temperature;BMP_pressure;BME280_temperature;BME280_humidity;BME280_pressure;Samples;Min_cycle;Max_cycle;Signal;HPM_P1;HPM_P2
2023/05/28 00:01:47;;;;;;;8.57;6.00;;;;;;;-143.21;83.68;72002.78;4973006;28;20603;-79
2023/05/28 00:04:15;;;;;;;9.93;6.20;;;;;;;-143.21;84.41;72008.72;4972493;28;20300;-81
2023/05/28 00:06:42;;;;;;;8.97;6.37;;;;;;;-143.21;84.55;72010.72;4973403;28;20289;-80
2023/05/28 00:09:10;;;;;;;10.63;6.30;;;;;;;-143.21;85.07;72006.75;4972602;28;20223;-79
2023/05/28 00:11:38;;;;;;;9.83;7.00;;;;;;;-143.21;85.27;72002.78;4973600;28;20204;-79
2023/05/28 00:14:05;;;;;;;8.50;6.50;;;;;;;-143.21;84.78;72008.72;4970070;28;20217;-79
2023/05/28 00:16:35;;;;;;;8.00;6.13;;;;;;;-143.21;85.35;72020.63;4973023;28;20271;-80
2023/05/28 00:19:02;;;;;;;11.20;6.90;;;;;;;-143.21;86.09;72018.63;4972806;28;20295;-80
2023/05/28 00:21:32;;;;;;;9.97;6.63;;;;;;;-143.21;87.50;72014.69;4972854;28;20212;-80
2023/05/28 00:23:58;;;;;;;9.13;5.97;;;;;;;-143.21;87.08;71996.81;4969835;28;20219;-80
2023/05/28 00:26:26;;;;;;;8.47;6.17;;;;;;;-143.21;86.20;71988.91;4972064;28;20219;-80
2023/05/28 00:28:54;;;;;;;8.07;5.90;;;;;;;-143.21;84.47;72002.78;4972914;28;20236;-81
2023/05/28 00:31:20;;;;;;;7.10;5.77;;;;;;;-143.21;83.92;72010.72;4972197;28;20676;-80
2023/05/28 00:33:47;;;;;;;9.97;5.87;;;;;;;-143.21;84.51;72010.72;4972238;28;20735;-79
2023/05/28 00:36:14;;;;;;;7.93;5.97;;;;;;;-143.21;84.52;72008.72;4971310;28;20205;-79
2023/05/28 00:38:41;;;;;;;8.47;6.70;;;;;;;-143.21;85.01;72006.75;4972247;28;20212;-80
2023/05/28 00:41:08;;;;;;;10.10;6.87;;;;;;;-143.21;84.71;72014.69;4968197;28;20197;-79
2023/05/28 00:43:35;;;;;;;6.90;5.63;;;;;;;-143.21;85.03;72016.66;4970720;28;20614;-80
2023/05/28 00:46:04;;;;;;;8.03;6.00;;;;;;;-143.21;84.73;72018.63;4971929;28;20222;-80
2023/05/28 00:48:32;;;;;;;7.83;5.60;;;;;;;-143.21;84.19;72018.63;4970784;28;20208;-83
2023/05/28 00:50:59;;;;;;;7.07;5.60;;;;;;;-143.21;83.91;72020.63;4971082;28;20213;-82
2023/05/28 00:53:26;;;;;;;7.50;5.83;;;;;;;-143.21;84.15;72030.53;4972039;28;20232;-81
2023/05/28 00:55:56;;;;;;;6.80;5.63;;;;;;;-143.21;84.09;72032.53;4970412;28;20259;-81
2023/05/28 00:58:24;;;;;;;7.10;5.13;;;;;;;-143.21;83.78;72034.50;4970917;28;20212;-81
2023/05/28 01:00:51;;;;;;;7.13;5.70;;;;;;;-143.21;84.13;72038.47;4968970;28;20264;-80
2023/05/28 01:03:20;;;;;;;6.63;5.23;;;;;;;-143.21;84.36;72036.50;4971784;28;20221;-81
2023/05/28 01:05:47;;;;;;;7.03;5.47;;;;;;;-143.21;84.22;72034.50;4971043;28;20672;-81
2023/05/28 01:08:14;;;;;;;7.73;5.60;;;;;;;-143.21;85.07;72038.47;4972130;28;20209;-81
2023/05/28 01:10:41;;;;;;;10.50;5.97;;;;;;;-143.21;85.24;72030.53;4968748;28;20291;-81
2023/05/28 01:13:09;;;;;;;8.57;5.47;;;;;;;-143.21;85.15;72030.53;4972393;28;20208;-81
2023/05/28 01:15:37;;;;;;;9.17;5.87;;;;;;;-143.21;85.80;72034.50;4972721;28;20209;-81
2023/05/28 01:18:06;;;;;;;6.93;6.23;;;;;;;-143.21;85.75;72030.53;4968664;28;20212;-81
2023/05/28 01:20:34;;;;;;;9.73;6.87;;;;;;;-143.21;86.01;72028.56;4968850;28;20200;-81
2023/05/28 01:23:06;;;;;;;8.17;6.23;;;;;;;-143.21;86.20;72022.59;4971751;28;20232;-82
2023/05/28 01:25:37;;;;;;;11.43;6.23;;;;;;;-143.21;86.93;72002.78;4971889;28;20209;-82
2023/05/28 01:28:12;;;;;;;8.23;5.83;;;;;;;-143.21;85.78;72010.72;4968622;28;20272;-81
2023/05/28 01:30:39;;;;;;;7.33;5.80;;;;;;;-143.21;86.00;72018.63;4965285;28;20299;-82
2023/05/28 01:33:07;;;;;;;7.60;6.17;;;;;;;-143.21;86.36;72024.59;4968182;28;20621;-82
2023/05/28 01:35:34;;;;;;;9.07;5.83;;;;;;;-143.21;86.92;72020.63;4971781;28;20205;-80
2023/05/28 01:38:04;;;;;;;7.30;5.70;;;;;;;-143.21;86.73;72024.59;4966322;28;20294;-81
2023/05/28 01:40:32;;;;;;;8.43;5.80;;;;;;;-143.21;87.12;72018.63;4971176;28;20208;-81
2023/05/28 01:43:01;;;;;;;7.00;6.00;;;;;;;-143.21;87.06;72014.69;4970553;28;20245;-81
2023/05/28 01:45:29;;;;;;;8.17;5.90;;;;;;;-143.21;87.43;72010.72;4970160;28;20216;-81
2023/05/28 01:47:56;;;;;;;7.27;5.90;;;;;;;-143.21;87.88;72004.75;4970437;28;20676;-81
2023/05/28 01:50:23;;;;;;;9.30;6.20;;;;;;;-143.21;87.12;72006.75;4967510;28;20208;-81
2023/05/28 01:52:50;;;;;;;8.30;5.63;;;;;;;-143.21;87.11;71998.81;4971553;28;20790;-80
2023/05/28 01:55:17;;;;;;;7.10;5.90;;;;;;;-143.21;85.91;71998.81;4970328;28;20217;-82
2023/05/28 01:57:44;;;;;;;6.37;5.37;;;;;;;-143.21;84.81;71992.88;4970898;28;20208;-80
2023/05/28 02:00:14;;;;;;;8.33;5.67;;;;;;;-143.21;85.30;71998.81;4970808;28;20208;-80
2023/05/28 02:02:42;;;;;;;11.30;5.73;;;;;;;-143.21;85.78;71998.81;4970589;28;20231;-80
2023/05/28 02:05:09;;;;;;;7.50;5.40;;;;;;;-143.21;85.86;72000.78;4969518;28;20239;-80
2023/05/28 02:07:36;;;;;;;7.97;5.63;;;;;;;-143.21;85.72;71994.84;4969665;28;20208;-80
2023/05/28 02:10:03;;;;;;;8.10;5.53;;;;;;;-143.21;85.53;71998.81;4970373;28;20201;-79
2023/05/28 02:12:30;;;;;;;6.40;5.80;;;;;;;-143.21;85.94;72002.78;4970497;28;20232;-81
2023/05/28 02:14:58;;;;;;;8.87;5.93;;;;;;;-143.21;86.04;71992.88;4970405;28;20223;-80
2023/05/28 02:17:27;;;;;;;7.53;5.57;;;;;;;-143.21;85.22;71986.91;4970368;28;20221;-80
2023/05/28 02:19:53;;;;;;;7.93;5.30;;;;;;;-143.21;84.99;71988.91;4969840;28;20268;-81
2023/05/28 02:22:20;;;;;;;7.13;5.73;;;;;;;-143.21;83.70;71986.91;4969134;28;20220;-80
2023/05/28 02:24:47;;;;;;;6.63;5.67;;;;;;;-143.21;83.41;71994.84;4969918;28;20204;-80
2023/05/28 02:27:14;;;;;;;7.80;5.47;;;;;;;-143.21;84.06;71994.84;4969951;28;20693;-81
2023/05/28 02:29:43;;;;;;;8.10;5.73;;;;;;;-143.21;84.65;72002.78;4970369;28;20204;-81
2023/05/28 02:32:10;;;;;;;9.00;5.90;;;;;;;-143.21;84.79;72006.75;4967063;28;20205;-80
2023/05/28 02:34:38;;;;;;;10.13;7.30;;;;;;;-143.21;84.70;72002.78;4969712;28;20242;-80
2023/05/28 02:37:06;;;;;;;11.00;7.50;;;;;;;-143.21;84.37;71992.88;4970136;28;20292;-80
2023/05/28 02:39:32;;;;;;;8.17;7.10;;;;;;;-143.21;84.20;72002.78;4969395;28;20267;-80
2023/05/28 02:42:02;;;;;;;9.20;6.63;;;;;;;-143.21;83.99;72008.72;4965277;28;20209;-77
2023/05/28 02:44:29;;;;;;;9.80;6.73;;;;;;;-143.21;84.09;71996.81;4967753;28;20680;-74
2023/05/28 02:46:56;;;;;;;6.87;6.07;;;;;;;-143.21;83.70;71994.84;4966920;28;20217;-74
2023/05/28 02:49:23;;;;;;;7.53;5.60;;;;;;;-143.21;83.21;71988.91;4968038;28;20266;-74
2023/05/28 02:51:51;;;;;;;8.40;5.53;;;;;;;-143.21;83.64;71990.88;4968061;28;20208;-74
2023/05/28 02:54:18;;;;;;;6.80;5.37;;;;;;;-143.21;84.08;71996.81;4968003;28;20216;-72
2023/05/28 02:56:45;;;;;;;6.57;5.50;;;;;;;-143.21;84.02;71996.81;4967513;28;20254;-74
2023/05/28 02:59:12;;;;;;;9.53;5.80;;;;;;;-143.21;83.68;71990.88;4968467;28;20652;-74
2023/05/28 03:01:38;;;;;;;7.13;6.20;;;;;;;-143.21;83.52;71986.91;4968662;28;20622;-73
2023/05/28 03:04:05;;;;;;;6.80;6.07;;;;;;;-143.21;83.07;71988.91;4968552;28;20583;-73
2023/05/28 03:06:33;;;;;;;8.40;6.20;;;;;;;-143.21;83.27;71978.97;4968525;28;20212;-72
2023/05/28 03:09:01;;;;;;;10.83;6.10;;;;;;;-143.21;83.23;71984.94;4967930;28;20849;-73
2023/05/28 03:11:27;;;;;;;12.57;7.03;;;;;;;-143.21;83.95;71971.06;4968511;28;20212;-73
2023/05/28 03:13:54;;;;;;;8.10;6.50;;;;;;;-143.21;84.80;71975.00;4968060;28;20201;-73
2023/05/28 03:16:21;;;;;;;7.80;7.00;;;;;;;-143.21;85.90;71978.97;4968676;28;20208;-73
2023/05/28 03:18:48;;;;;;;8.30;6.93;;;;;;;-143.21;85.67;71971.06;4968136;28;20664;-72
2023/05/28 03:21:15;;;;;;;10.73;7.00;;;;;;;-143.21;85.60;71967.09;4968317;28;20672;-72
2023/05/28 03:23:41;;;;;;;11.23;7.77;;;;;;;-143.21;85.74;71959.16;4968045;28;20240;-74
2023/05/28 03:26:10;;;;;;;9.83;7.70;;;;;;;-143.21;85.38;71957.16;4964441;28;20672;-73
2023/05/28 03:28:36;;;;;;;11.60;7.20;;;;;;;-143.21;85.17;71955.19;4967160;28;20204;-72
2023/05/28 03:31:03;;;;;;;11.03;7.40;;;;;;;-143.21;86.01;71961.13;4967674;28;20212;-73
2023/05/28 03:33:30;;;;;;;10.53;7.27;;;;;;;-143.21;86.22;71967.09;4967667;28;20622;-73
2023/05/28 03:35:57;;;;;;;8.40;6.90;;;;;;;-143.21;85.86;71951.22;4968120;28;20205;-73
2023/05/28 03:38:24;;;;;;;8.00;6.60;;;;;;;-143.21;84.38;71971.06;4967939;28;20219;-73
2023/05/28 03:40:50;;;;;;;8.30;6.73;;;;;;;-143.21;84.86;71978.97;4968322;28;20236;-74
2023/05/28 03:43:19;;;;;;;9.83;6.40;;;;;;;-143.21;84.86;71978.97;4968200;28;20581;-72
2023/05/28 03:45:45;;;;;;;9.40;6.30;;;;;;;-143.21;84.70;71971.06;4968168;28;20575;-73
2023/05/28 03:48:12;;;;;;;9.20;6.00;;;;;;;-143.21;84.03;71971.06;4967417;28;20213;-73
2023/05/28 03:50:39;;;;;;;12.03;6.90;;;;;;;-143.21;83.71;71971.06;4968168;28;20212;-73
2023/05/28 03:53:07;;;;;;;9.40;6.37;;;;;;;-143.21;83.74;71980.97;4964779;28;20201;-73
2023/05/28 03:55:35;;;;;;;7.00;6.00;;;;;;;-143.21;84.75;71986.91;4969333;28;20223;-73
2023/05/28 03:58:02;;;;;;;7.97;6.57;;;;;;;-143.21;85.89;71990.88;4968356;28;20209;-73
2023/05/28 04:00:30;;;;;;;8.00;6.30;;;;;;;-143.21;85.95;71986.91;4967714;28;20217;-73
2023/05/28 04:02:57;;;;;;;8.90;6.70;;;;;;;-143.21;86.32;71984.94;4967914;28;20303;-73
2023/05/28 04:05:24;;;;;;;9.63;7.50;;;;;;;-143.21;86.48;71982.94;4968129;28;20215;-74
2023/05/28 04:07:51;;;;;;;11.77;7.63;;;;;;;-143.21;86.49;71980.97;4967574;28;20208;-73
2023/05/28 04:10:18;;;;;;;12.23;7.20;;;;;;;-143.21;86.69;71975.00;4965684;28;20213;-73
2023/05/28 04:12:45;;;;;;;8.67;7.20;;;;;;;-143.21;86.43;71961.13;4968205;28;20577;-73
2023/05/28 04:15:12;;;;;;;13.20;8.07;;;;;;;-143.21;86.62;71965.09;4967527;28;20283;-74
2023/05/28 04:17:40;;;;;;;8.13;7.10;;;;;;;-143.21;86.15;71951.22;4967047;28;20224;-74
2023/05/28 04:20:09;;;;;;;12.73;7.70;;;;;;;-143.21;85.80;71953.19;4971492;28;20205;-73
2023/05/28 04:22:36;;;;;;;9.40;7.40;;;;;;;-143.21;86.17;71951.22;4969890;28;20692;-73
2023/05/28 04:25:03;;;;;;;12.77;7.93;;;;;;;-143.21;86.81;71951.22;4970062;28;20256;-73
2023/05/28 04:27:30;;;;;;;18.07;8.57;;;;;;;-143.21;86.90;71943.28;4971208;28;20208;-73
2023/05/28 04:29:57;;;;;;;9.27;7.63;;;;;;;-143.21;85.83;71945.28;4957067;28;20782;-73
2023/05/28 04:32:24;;;;;;;10.13;7.80;;;;;;;-143.21;85.42;71943.28;4970717;28;20224;-73
2023/05/28 04:34:53;;;;;;;10.03;7.23;;;;;;;-143.21;84.99;71953.19;4922749;29;20238;-73
2023/05/28 04:37:20;;;;;;;9.80;7.13;;;;;;;-143.21;85.24;71947.25;4930414;29;20216;-73
2023/05/28 04:39:46;;;;;;;11.17;7.03;;;;;;;-143.21;85.46;71951.22;4927986;29;20213;-73
2023/05/28 04:42:16;;;;;;;9.00;7.00;;;;;;;-143.21;85.22;71957.16;4925698;29;20690;-73
2023/05/28 04:44:43;;;;;;;9.93;7.43;;;;;;;-143.21;85.20;71955.19;4915426;29;20235;-73
2023/05/28 04:47:11;;;;;;;12.33;7.70;;;;;;;-143.21;85.58;71941.31;4925331;29;20213;-73
2023/05/28 04:49:40;;;;;;;10.73;7.63;;;;;;;-143.21;85.35;71935.34;4924685;29;20210;-75
2023/05/28 04:52:08;;;;;;;8.60;7.43;;;;;;;-143.21;85.30;71925.44;4922673;29;20722;-72
2023/05/28 04:54:35;;;;;;;9.60;8.50;;;;;;;-143.21;85.90;71927.44;4929863;29;20202;-73
2023/05/28 04:57:04;;;;;;;14.90;8.60;;;;;;;-143.21;85.83;71937.34;4926781;29;20239;-73
2023/05/28 04:59:31;;;;;;;11.73;7.50;;;;;;;-143.21;84.49;71925.44;4920792;29;20210;-73
2023/05/28 05:01:59;;;;;;;10.97;7.63;;;;;;;-143.21;85.17;71929.41;4924556;29;20312;-73
2023/05/28 05:04:26;;;;;;;8.50;7.20;;;;;;;-143.21;85.50;71925.44;4922435;29;20330;-81
2023/05/28 05:06:52;;;;;;;11.53;7.90;;;;;;;-143.21;85.81;71929.41;4927132;29;20297;-80
2023/05/28 05:09:21;;;;;;;10.90;7.90;;;;;;;-143.21;86.09;71933.38;4926545;29;20685;-80
2023/05/28 05:11:48;;;;;;;11.20;7.63;;;;;;;-143.21;86.30;71935.34;4927687;29;20210;-81
2023/05/28 05:14:14;;;;;;;21.60;8.80;;;;;;;-143.21;85.78;71931.38;4923800;29;20605;-82
2023/05/28 05:16:41;;;;;;;13.13;8.03;;;;;;;-143.21;85.79;71925.44;4922593;29;20270;-82
2023/05/28 05:19:08;;;;;;;9.07;7.73;;;;;;;-143.21;85.76;71917.50;4928747;29;20210;-81
2023/05/28 05:21:35;;;;;;;13.67;8.33;;;;;;;-143.21;85.60;71911.56;4923661;29;20214;-82
2023/05/28 05:24:02;;;;;;;11.17;7.60;;;;;;;-143.21;84.07;71903.63;4923349;29;20238;-81
2023/05/28 05:26:30;;;;;;;11.80;7.93;;;;;;;-143.21;84.12;71893.72;4923640;29;20716;-83
2023/05/28 05:28:57;;;;;;;11.40;8.23;;;;;;;-143.21;83.46;71891.72;4926227;29;20209;-81
2023/05/28 05:31:24;;;;;;;12.10;8.60;;;;;;;-143.21;83.34;71891.72;4928679;29;20206;-82
2023/05/28 05:33:50;;;;;;;11.77;8.50;;;;;;;-143.21;83.65;71887.78;4954983;28;20231;-82
2023/05/28 05:36:17;;;;;;;10.53;8.13;;;;;;;-143.21;84.53;71889.75;4971876;28;20660;-82
2023/05/28 05:38:45;;;;;;;12.67;8.67;;;;;;;-143.21;84.47;71881.81;4970569;28;20198;-82
2023/05/28 05:41:12;;;;;;;11.30;8.80;;;;;;;-143.21;83.62;71865.97;4971743;28;20204;-81
2023/05/28 05:43:40;;;;;;;16.93;8.53;;;;;;;-143.21;83.75;71863.97;4970601;28;20311;-81
2023/05/28 05:46:07;;;;;;;13.73;8.80;;;;;;;-143.21;83.81;71852.06;4971401;28;20930;-81
2023/05/28 05:48:34;;;;;;;14.60;8.27;;;;;;;-143.21;82.70;71848.09;4968157;28;20263;-83
2023/05/28 05:51:02;;;;;;;10.07;7.40;;;;;;;-143.21;81.30;71854.06;4966508;28;20239;-82
2023/05/28 05:53:30;;;;;;;13.37;7.73;;;;;;;-143.21;80.69;71854.06;4952193;28;20212;-80
2023/05/28 05:55:56;;;;;;;10.73;7.83;;;;;;;-143.21;80.66;71850.09;4970442;28;20216;-79
2023/05/28 05:58:23;;;;;;;11.07;8.03;;;;;;;-143.21;80.95;71838.19;4969846;28;20213;-79
2023/05/28 06:00:51;;;;;;;9.57;7.23;;;;;;;-143.21;79.63;71838.19;4970800;28;20204;-79
2023/05/28 06:03:18;;;;;;;9.13;7.33;;;;;;;-143.21;79.87;71844.16;4969520;28;20640;-80
2023/05/28 06:05:45;;;;;;;10.50;7.73;;;;;;;-143.21;80.54;71850.09;4969336;28;20205;-80
2023/05/28 06:08:12;;;;;;;11.40;7.50;;;;;;;-143.21;81.92;71844.16;4969662;28;20597;-81
2023/05/28 06:10:39;;;;;;;9.40;7.40;;;;;;;-143.21;83.15;71838.19;4969875;28;20205;-81
2023/05/28 06:13:06;;;;;;;13.00;8.30;;;;;;;-143.21;83.42;71834.22;4966420;28;20617;-82
2023/05/28 06:15:33;;;;;;;13.70;8.23;;;;;;;-143.21;82.64;71830.25;4970115;28;20209;-81
2023/05/28 06:18:01;;;;;;;12.87;9.17;;;;;;;-143.21;83.31;71822.34;4967385;28;20243;-81
2023/05/28 06:20:28;;;;;;;12.07;9.20;;;;;;;-143.21;83.41;71820.34;4971289;28;20212;-82
2023/05/28 06:22:55;;;;;;;9.87;7.80;;;;;;;-143.21;83.57;71812.41;4970255;28;20204;-82
2023/05/28 06:25:22;;;;;;;18.97;7.97;;;;;;;-143.21;84.10;71818.38;4970088;28;20232;-80
2023/05/28 06:27:49;;;;;;;13.10;7.27;;;;;;;-143.21;84.01;71812.41;4970049;28;20204;-81
2023/05/28 06:30:16;;;;;;;9.90;7.90;;;;;;;-143.21;83.86;71804.47;4969793;28;20212;-82
2023/05/28 06:32:44;;;;;;;10.87;8.10;;;;;;;-143.21;83.06;71800.53;4970666;28;20233;-83
2023/05/28 06:35:13;;;;;;;13.10;8.40;;;;;;;-143.21;83.49;71804.47;4963485;28;20198;-84
2023/05/28 06:37:40;;;;;;;12.23;8.13;;;;;;;-143.21;83.42;71802.50;4971634;28;20216;-86
2023/05/28 06:40:08;;;;;;;16.63;8.70;;;;;;;-143.21;83.46;71798.53;4969096;28;20251;-76
2023/05/28 06:42:35;;;;;;;9.77;8.40;;;;;;;-143.21;83.52;71808.44;4961356;28;20215;-76
2023/05/28 06:45:03;;;;;;;11.93;8.60;;;;;;;-143.21;84.16;71812.41;4968256;28;20228;-76
2023/05/28 06:47:30;;;;;;;12.83;9.23;;;;;;;-143.21;85.03;71812.41;4967809;28;20763;-76
2023/05/28 06:49:57;;;;;;;16.10;11.50;;;;;;;-143.21;85.22;71810.44;4967433;28;20468;-76
2023/05/28 06:52:26;;;;;;;13.27;9.53;;;;;;;-143.21;85.46;71804.47;4968525;28;20205;-76
2023/05/28 06:54:53;;;;;;;12.63;10.03;;;;;;;-143.21;85.19;71808.44;4967265;28;20315;-76
2023/05/28 06:57:21;;;;;;;11.60;9.50;;;;;;;-143.21;85.46;71804.47;4964378;28;20655;-76
2023/05/28 06:59:48;;;;;;;15.47;9.30;;;;;;;-143.21;84.83;71808.44;4967969;28;20212;-77
2023/05/28 07:02:15;;;;;;;12.10;9.40;;;;;;;-143.21;85.01;71800.53;4969394;28;20675;-76
2023/05/28 07:04:41;;;;;;;13.60;10.00;;;;;;;-143.21;84.61;71792.59;4968102;28;20686;-76
2023/05/28 07:07:08;;;;;;;15.27;10.27;;;;;;;-143.21;85.41;71784.66;4968749;28;20287;-77
2023/05/28 07:09:36;;;;;;;14.00;9.47;;;;;;;-143.21;85.75;71786.63;4966000;28;20209;-76
2023/05/28 07:12:03;;;;;;;13.60;10.10;;;;;;;-143.21;85.41;71784.66;4969128;28;20205;-77
2023/05/28 07:14:30;;;;;;;15.83;10.40;;;;;;;-143.21;85.21;71782.69;4968568;28;20215;-76
2023/05/28 07:16:57;;;;;;;13.60;10.47;;;;;;;-143.21;85.02;71780.69;4968783;28;20212;-76
2023/05/28 07:19:24;;;;;;;14.17;9.23;;;;;;;-143.21;85.03;71772.75;4967098;28;20661;-77
2023/05/28 07:21:51;;;;;;;19.60;11.03;;;;;;;-143.21;85.07;71772.75;4966364;28;20263;-77
2023/05/28 07:24:18;;;;;;;13.43;10.37;;;;;;;-143.21;84.65;71760.88;4967159;28;20337;-76
2023/05/28 07:26:46;;;;;;;14.45;10.02;;;;;;;-143.21;85.26;71750.94;4965321;28;20205;-77
2023/05/28 07:29:16;;;;;;;17.30;9.95;;;;;;;-143.21;84.37;71735.09;4969221;28;20208;-76
2023/05/28 07:31:43;;;;;;;13.53;10.10;;;;;;;-143.21;82.33;71733.09;4967980;28;20640;-77
2023/05/28 07:34:10;;;;;;;14.00;9.93;;;;;;;-143.21;81.50;71743.00;4968160;28;20600;-77
2023/05/28 07:36:37;;;;;;;14.63;8.93;;;;;;;-143.21;81.68;71752.94;4968361;28;20308;-78
2023/05/28 07:39:05;;;;;;;10.80;8.45;;;;;;;-143.21;82.44;71745.00;4965342;28;20621;-77
2023/05/28 07:41:32;;;;;;;11.77;8.10;;;;;;;-143.21;82.28;71723.19;4968636;28;20204;-77
2023/05/28 07:44:00;;;;;;;10.57;7.93;;;;;;;-143.21;80.72;71717.25;4968013;28;20229;-75
2023/05/28 07:46:27;;;;;;;10.90;7.32;;;;;;;-143.21;80.03;71717.25;4968248;28;20656;-77
2023/05/28 07:48:53;;;;;;;8.10;6.68;;;;;;;-143.21;79.76;71711.28;4968300;28;20208;-77
2023/05/28 07:51:20;;;;;;;7.78;5.85;;;;;;;-143.21;80.61;71705.34;4965410;28;20201;-77
2023/05/28 07:53:47;;;;;;;7.55;5.22;;;;;;;-143.21;79.24;71697.41;4969336;28;20271;-77
2023/05/28 07:56:14;;;;;;;7.38;5.63;;;;;;;-143.21;79.53;71699.41;4972507;28;20220;-76
2023/05/28 07:58:43;;;;;;;7.70;5.47;;;;;;;-143.21;79.19;71697.41;4971593;28;20537;-77
2023/05/28 08:01:12;;;;;;;7.10;5.28;;;;;;;-143.21;79.24;71701.38;4972508;28;20203;-76
2023/05/28 08:03:38;;;;;;;6.18;4.55;;;;;;;-143.21;78.74;71727.16;4972078;28;20217;-75
2023/05/28 08:06:06;;;;;;;6.68;4.57;;;;;;;-143.21;79.50;71733.09;4972507;28;20742;-76
2023/05/28 08:08:33;;;;;;;8.70;4.60;;;;;;;-143.21;79.28;71762.84;4971689;28;20208;-77
2023/05/28 08:10:59;;;;;;;4.90;4.07;;;;;;;-143.21;79.69;71750.94;4972343;28;20264;-77
2023/05/28 08:13:26;;;;;;;7.57;4.32;;;;;;;-143.21;80.09;71748.97;4972076;28;20242;-76
2023/05/28 08:15:53;;;;;;;5.93;4.47;;;;;;;-143.21;80.47;71735.09;4972126;28;20298;-76
2023/05/28 08:18:21;;;;;;;10.63;4.70;;;;;;;-143.21;80.43;71717.25;4971458;28;20200;-77
2023/05/28 08:20:48;;;;;;;5.38;4.25;;;;;;;-143.21;80.23;71713.28;4970527;28;20259;-78
2023/05/28 08:23:15;;;;;;;5.78;4.13;;;;;;;-143.21;79.86;71697.41;4970273;28;20295;-76
2023/05/28 08:25:42;;;;;;;6.72;4.53;;;;;;;-143.21;80.07;71685.50;4970660;28;20229;-77
2023/05/28 08:28:09;;;;;;;6.93;4.45;;;;;;;-143.21;80.95;71671.63;4970819;28;20201;-74
2023/05/28 08:30:36;;;;;;;9.10;4.70;;;;;;;-143.21;79.68;71673.63;4968539;28;20299;-76
2023/05/28 08:33:03;;;;;;;5.63;4.53;;;;;;;-143.21;78.55;71667.66;4971062;28;20874;-78
2023/05/28 08:35:31;;;;;;;24.35;5.47;;;;;;;-143.21;78.92;71655.78;4970712;28;20220;-75
2023/05/28 08:37:58;;;;;;;27.10;5.28;;;;;;;-143.21;77.48;71657.75;4970862;28;20212;-76
2023/05/28 08:40:26;;;;;;;24.60;4.70;;;;;;;-143.21;77.86;71641.91;4970145;28;20821;-75
2023/05/28 08:42:53;;;;;;;10.27;4.40;;;;;;;-143.21;77.66;71641.91;4969603;28;20695;-75
2023/05/28 08:45:20;;;;;;;24.27;4.28;;;;;;;-143.21;77.03;71645.88;4969883;28;20319;-76
2023/05/28 08:47:51;;;;;;;11.77;4.10;;;;;;;-143.21;76.12;71628.00;4970608;28;20205;-75
2023/05/28 08:50:18;;;;;;;7.88;4.25;;;;;;;-143.21;74.11;71641.91;4970603;28;20225;-76
2023/05/28 08:52:49;;;;;;;3.95;3.50;;;;;;;-143.21;75.27;71641.91;4970637;28;20215;-76
2023/05/28 08:55:16;;;;;;;4.78;3.67;;;;;;;-143.21;75.80;71657.75;4968320;28;20189;-76
2023/05/28 08:57:45;;;;;;;5.88;3.95;;;;;;;-143.21;75.36;71655.78;4964840;28;20277;-76
2023/05/28 09:00:13;;;;;;;5.30;4.05;;;;;;;-143.21;74.95;71667.66;4970810;28;20243;-75
2023/05/28 09:02:41;;;;;;;5.03;4.10;;;;;;;-143.21;75.10;71665.69;4970065;28;20280;-75
2023/05/28 09:05:08;;;;;;;5.00;3.58;;;;;;;-143.21;74.30;71651.81;4969893;28;20311;-76
2023/05/28 09:07:35;;;;;;;12.27;3.92;;;;;;;-143.21;75.33;71631.97;4970119;28;20213;-76
2023/05/28 09:10:04;;;;;;;4.72;3.70;;;;;;;-143.21;74.58;71606.22;4970436;28;20698;-75
2023/05/28 09:12:31;;;;;;;5.05;3.80;;;;;;;-143.21;74.49;71598.28;4970928;28;20209;-75
2023/05/28 09:14:58;;;;;;;4.05;3.60;;;;;;;-143.21;72.87;71580.44;4970169;28;21189;-75
2023/05/28 09:17:35;;;;;;;6.00;3.67;;;;;;;-143.21;72.96;71574.47;4969886;28;20291;-75
2023/05/28 09:20:04;;;;;;;5.43;3.90;;;;;;;-143.21;72.61;71558.63;4969518;28;20211;-76
2023/05/28 09:22:31;;;;;;;4.43;3.45;;;;;;;-143.21;72.98;71568.53;4970121;28;20213;-75
2023/05/28 09:25:00;;;;;;;5.50;3.45;;;;;;;-143.21;72.18;71560.59;4970152;28;20322;-75
2023/05/28 09:27:28;;;;;;;4.22;3.83;;;;;;;-143.21;71.96;71566.56;4970638;28;20220;-75
2023/05/28 09:30:02;;;;;;;5.80;3.75;;;;;;;-143.21;72.86;71540.78;4970645;28;20217;-75
2023/05/28 09:32:29;;;;;;;6.15;3.72;;;;;;;-143.21;72.20;71544.75;4969562;28;20217;-75
2023/05/28 09:34:57;;;;;;;8.30;3.72;;;;;;;-143.21;71.64;71550.69;4970198;28;20837;-75
2023/05/28 09:37:24;;;;;;;8.23;4.40;;;;;;;-143.21;69.81;71550.69;4969801;28;20287;-74
2023/05/28 09:40:01;;;;;;;8.95;4.95;;;;;;;-143.21;69.79;71562.59;4970227;28;20287;-74
2023/05/28 09:42:34;;;;;;;8.40;5.10;;;;;;;-143.21;69.76;71570.53;4969789;28;20627;-74
2023/05/28 09:45:01;;;;;;;7.32;4.93;;;;;;;-143.21;69.63;71578.44;4969512;28;20764;-75
2023/05/28 09:47:28;;;;;;;8.00;5.20;;;;;;;-143.21;70.89;71596.28;4969960;28;20354;-75
2023/05/28 09:49:55;;;;;;;9.30;5.13;;;;;;;-143.21;70.68;71612.16;4969314;28;20271;-75
2023/05/28 09:52:23;;;;;;;7.90;4.18;;;;;;;-143.21;71.17;71643.88;4969804;28;20224;-75
2023/05/28 09:54:51;;;;;;;5.55;4.00;;;;;;;-143.21;72.41;71653.78;4969785;28;20215;-75
2023/05/28 09:57:23;;;;;;;5.28;4.05;;;;;;;-143.21;72.40;71661.72;4967145;28;20254;-75
2023/05/28 09:59:55;;;;;;;6.38;4.28;;;;;;;-143.21;72.85;71655.78;4966804;28;20562;-75
2023/05/28 10:02:28;;;;;;;5.38;4.30;;;;;;;-143.21;73.20;71665.69;4969474;28;20228;-76
2023/05/28 10:04:58;;;;;;;5.18;3.95;;;;;;;-143.21;73.50;71641.91;4967877;28;20611;-75
2023/05/28 10:07:26;;;;;;;6.20;4.47;;;;;;;-143.21;72.27;71614.13;4968903;28;20201;-75
2023/05/28 10:09:56;;;;;;;5.15;3.88;;;;;;;-143.21;71.24;71574.47;4968122;28;20209;-75
2023/05/28 10:12:27;;;;;;;5.75;3.95;;;;;;;-143.21;71.90;71520.94;4968710;28;20703;-74
2023/05/28 10:14:57;;;;;;;9.63;4.78;;;;;;;-143.21;69.93;71505.09;4968392;28;20217;-74
2023/05/28 10:17:27;;;;;;;5.70;3.95;;;;;;;-143.21;68.42;71516.97;4967595;28;20212;-75
2023/05/28 10:19:54;;;;;;;10.27;4.55;;;;;;;-143.21;69.17;71516.97;4967953;28;20264;-75
2023/05/28 10:22:21;;;;;;;4.63;3.97;;;;;;;-143.21;69.13;71481.28;4968335;28;20296;-75
2023/05/28 10:24:50;;;;;;;5.13;3.78;;;;;;;-143.21;67.03;71451.56;4968777;28;20228;-75
2023/05/28 10:27:18;;;;;;;7.55;3.85;;;;;;;-143.21;66.39;71447.59;4968147;28;20213;-75
2023/05/28 10:29:47;;;;;;;6.32;4.25;;;;;;;-143.21;66.04;71435.69;4968062;28;20259;-75
2023/05/28 10:32:16;;;;;;;5.30;4.45;;;;;;;-143.21;66.14;71439.66;4968397;28;20389;-77
2023/05/28 10:34:43;;;;;;;5.78;4.45;;;;;;;-143.21;65.69;71435.69;4966320;28;20810;-75
2023/05/28 10:37:13;;;;;;;4.07;3.65;;;;;;;-143.21;65.54;71437.69;4967632;28;20209;-76
2023/05/28 10:39:43;;;;;;;6.30;3.83;;;;;;;-143.21;65.17;71429.75;4968498;28;20207;-76
2023/05/28 10:42:15;;;;;;;5.63;4.15;;;;;;;-143.21;65.22;71437.69;4967949;28;20299;-75
2023/05/28 10:45:06;;;;;;;5.50;4.20;;;;;;;-143.21;65.91;71455.53;4968067;28;20204;-75
2023/05/28 10:47:36;;;;;;;6.57;3.95;;;;;;;-143.21;66.27;71455.53;4967570;28;20974;-76
2023/05/28 10:50:12;;;;;;;6.13;4.57;;;;;;;-143.21;66.70;71449.56;4967640;28;20289;-75
2023/05/28 10:52:39;;;;;;;7.72;4.75;;;;;;;-143.21;66.58;71447.59;4966018;28;20295;-75
2023/05/28 10:55:08;;;;;;;7.70;5.18;;;;;;;-143.21;65.64;71485.25;4969024;28;20201;-75
2023/05/28 10:57:43;;;;;;;5.63;4.90;;;;;;;-143.21;66.27;71479.31;4968783;28;20205;-75
2023/05/28 11:00:12;;;;;;;9.00;5.00;;;;;;;-143.21;66.55;71473.38;4965904;28;20211;-75
2023/05/28 11:02:43;;;;;;;7.75;4.88;;;;;;;-143.21;66.48;71461.47;4968326;28;20216;-75
2023/05/28 11:05:10;;;;;;;8.40;6.03;;;;;;;-143.21;64.88;71455.53;4967904;28;20208;-75
2023/05/28 11:07:39;;;;;;;8.23;5.43;;;;;;;-143.21;64.80;71461.47;4968483;28;20200;-73
2023/05/28 11:10:07;;;;;;;8.15;5.40;;;;;;;-143.21;64.42;71451.56;4964703;28;20298;-74
2023/05/28 11:12:37;;;;;;;9.27;5.85;;;;;;;-143.21;64.41;71457.50;4964397;28;20216;-76
2023/05/28 11:15:06;;;;;;;6.57;5.70;;;;;;;-143.21;65.06;71453.53;4967978;28;20687;-78
2023/05/28 11:17:38;;;;;;;7.70;6.13;;;;;;;-143.21;65.10;71457.50;4968208;28;20677;-75